createdAt,value
2023-02-06T00:01:00.930Z,5.07
2023-02-06T00:04:02.776Z,5.09
2023-02-06T00:07:04.520Z,5.11
2023-02-06T00:10:06.700Z,5.13
2023-02-06T00:13:08.536Z,5.16
2023-02-06T00:16:25.406Z,5.17
2023-02-06T00:19:27.131Z,5.15
2023-02-06T00:22:28.792Z,5.10
2023-02-06T00:25:30.457Z,5.07
2023-02-06T00:28:32.304Z,5.04
2023-02-06T00:31:34.040Z,5.02
2023-02-06T00:34:35.719Z,5.00
2023-02-06T00:37:37.402Z,4.97
2023-02-06T00:40:39.368Z,4.96
2023-02-06T00:43:42.162Z,4.94
2023-02-06T00:46:43.951Z,4.88
2023-02-06T00:49:45.778Z,4.83
2023-02-06T00:52:47.544Z,4.79
2023-02-06T00:55:49.305Z,4.74
2023-02-06T00:58:50.988Z,4.73
2023-02-06T01:01:52.761Z,4.72
2023-02-06T01:04:55.126Z,4.73
2023-02-06T01:07:56.815Z,4.74
2023-02-06T01:10:59.801Z,4.76
2023-02-06T01:14:02.011Z,4.79
2023-02-06T01:17:03.902Z,4.81
2023-02-06T01:20:08.515Z,4.82
2023-02-06T01:23:10.893Z,4.83
2023-02-06T01:26:14.700Z,4.82
2023-02-06T01:29:16.671Z,4.81
2023-02-06T01:32:18.426Z,4.79
2023-02-06T01:35:20.393Z,4.76
2023-02-06T01:38:22.131Z,4.74
2023-02-06T01:41:24.353Z,4.71
2023-02-06T01:44:26.600Z,4.69
2023-02-06T01:47:29.035Z,4.67
2023-02-06T01:50:32.733Z,4.66
2023-02-06T01:53:35.265Z,4.63
2023-02-06T01:56:41.306Z,4.62
2023-02-06T01:59:47.395Z,4.60
2023-02-06T02:02:49.429Z,4.57
2023-02-06T02:05:51.769Z,4.53
2023-02-06T02:08:56.573Z,4.50
2023-02-06T02:11:59.870Z,4.48
2023-02-06T02:15:01.633Z,4.48
2023-02-06T02:18:11.593Z,4.50
2023-02-06T02:21:51.075Z,4.52
2023-02-06T02:24:58.672Z,4.55
2023-02-06T02:28:30.605Z,4.57
2023-02-06T02:32:03.414Z,4.58
2023-02-06T02:35:43.961Z,4.58
2023-02-06T02:39:10.731Z,4.58
2023-02-06T02:42:21.171Z,4.58
2023-02-06T02:45:33.165Z,4.54
2023-02-06T02:48:39.757Z,4.52
2023-02-06T02:51:42.436Z,4.50
2023-02-06T02:54:44.095Z,4.47
2023-02-06T02:57:47.495Z,4.41
2023-02-06T03:00:53.641Z,4.37
2023-02-06T03:03:59.526Z,4.31
2023-02-06T03:07:19.973Z,4.26
2023-02-06T03:10:41.954Z,4.21
2023-02-06T03:13:52.218Z,4.17
2023-02-06T03:17:05.786Z,4.17
2023-02-06T03:20:09.476Z,4.18
2023-02-06T03:23:24.344Z,4.18
2023-02-06T03:26:27.718Z,4.15
2023-02-06T03:29:32.154Z,4.08
2023-02-06T03:32:36.782Z,4.06
2023-02-06T03:35:38.988Z,4.02
2023-02-06T03:38:40.930Z,3.98
2023-02-06T03:41:44.344Z,3.94
2023-02-06T03:44:51.633Z,3.89
2023-02-06T03:47:54.733Z,3.85
2023-02-06T03:50:59.751Z,3.80
2023-02-06T03:54:03.480Z,3.79
2023-02-06T03:57:06.702Z,3.77
2023-02-06T04:00:09.565Z,3.76
2023-02-06T04:03:14.992Z,3.76
2023-02-06T04:06:16.752Z,3.77
2023-02-06T04:09:18.427Z,3.78
2023-02-06T04:12:21.713Z,3.79
2023-02-06T04:15:23.329Z,3.82
2023-02-06T04:18:25.032Z,3.82
2023-02-06T04:21:26.688Z,3.79
2023-02-06T04:24:30.798Z,3.78
2023-02-06T04:27:32.979Z,3.80
2023-02-06T04:30:34.813Z,3.82
2023-02-06T04:33:36.502Z,3.83
2023-02-06T04:36:38.162Z,3.84
2023-02-06T04:39:39.865Z,3.84
2023-02-06T04:42:41.517Z,3.85
2023-02-06T04:45:43.284Z,3.85
2023-02-06T04:48:45.008Z,3.84
2023-02-06T04:51:46.669Z,3.83
2023-02-06T04:54:48.414Z,3.81
2023-02-06T04:57:50.068Z,3.77
2023-02-06T05:00:51.878Z,3.73
2023-02-06T05:03:53.533Z,3.69
2023-02-06T05:06:55.269Z,3.66
2023-02-06T05:09:56.923Z,3.64
2023-02-06T05:12:58.628Z,3.61
2023-02-06T05:16:08.446Z,3.61
2023-02-06T05:19:10.808Z,3.63
2023-02-06T05:22:12.709Z,3.64
2023-02-06T05:25:23.036Z,3.65
2023-02-06T05:28:25.204Z,3.67
2023-02-06T05:31:27.290Z,3.68
2023-02-06T05:34:29.145Z,3.69
2023-02-06T05:37:30.901Z,3.71
2023-02-06T05:40:32.894Z,3.72
2023-02-06T05:43:35.048Z,3.72
2023-02-06T05:46:37.721Z,3.71
2023-02-06T05:49:39.474Z,3.70
2023-02-06T05:52:41.257Z,3.69
2023-02-06T05:55:43.032Z,3.66
2023-02-06T05:58:44.636Z,3.64
2023-02-06T06:01:46.343Z,3.62
2023-02-06T06:04:48.126Z,3.61
2023-02-06T06:07:49.964Z,3.61
2023-02-06T06:10:52.375Z,3.65
2023-02-06T06:13:54.052Z,3.68
2023-02-06T06:16:55.665Z,3.71
2023-02-06T06:19:57.728Z,3.74
2023-02-06T06:22:59.366Z,3.76
2023-02-06T06:26:00.996Z,3.76
2023-02-06T06:29:03.172Z,3.74
2023-02-06T06:32:05.351Z,3.74
2023-02-06T06:35:07.671Z,3.75
2023-02-06T06:38:09.432Z,3.76
2023-02-06T06:41:11.131Z,3.77
2023-02-06T06:44:12.848Z,3.79
2023-02-06T06:47:14.611Z,3.80
2023-02-06T06:50:16.419Z,3.83
2023-02-06T06:53:18.241Z,3.86
2023-02-06T06:56:19.833Z,3.91
2023-02-06T06:59:21.488Z,3.98
2023-02-06T07:02:23.132Z,4.04
2023-02-06T07:05:25.080Z,4.08
2023-02-06T07:08:30.121Z,4.12
2023-02-06T07:11:31.879Z,4.15
2023-02-06T07:14:33.542Z,4.18
2023-02-06T07:17:35.405Z,4.22
2023-02-06T07:20:38.200Z,4.23
2023-02-06T07:23:39.859Z,4.24
2023-02-06T07:26:41.666Z,4.26
2023-02-06T07:29:43.796Z,4.30
2023-02-06T07:32:45.549Z,4.33
2023-02-06T07:35:47.480Z,4.37
2023-02-06T07:38:49.171Z,4.40
2023-02-06T07:41:51.139Z,4.43
2023-02-06T07:44:53.896Z,4.46
2023-02-06T07:47:55.689Z,4.51
2023-02-06T07:51:03.101Z,4.59
2023-02-06T07:54:04.844Z,4.69
2023-02-06T07:57:06.503Z,4.79
2023-02-06T08:00:09.396Z,4.87
2023-02-06T08:03:16.787Z,4.94
2023-02-06T08:06:19.269Z,5.00
2023-02-06T08:09:21.127Z,5.07
2023-02-06T08:12:22.992Z,5.11
2023-02-06T08:15:25.573Z,5.15
2023-02-06T08:18:27.547Z,5.20
2023-02-06T08:21:29.187Z,5.24
2023-02-06T08:24:31.277Z,5.27
2023-02-06T08:27:33.029Z,5.30
2023-02-06T08:30:34.846Z,5.33
2023-02-06T08:33:36.867Z,5.36
2023-02-06T08:36:38.931Z,5.40
2023-02-06T08:39:40.584Z,5.44
2023-02-06T08:42:42.352Z,5.49
2023-02-06T08:45:51.160Z,5.52
2023-02-06T08:48:57.560Z,5.56
2023-02-06T08:51:59.242Z,5.60
2023-02-06T08:55:00.902Z,5.65
2023-02-06T08:58:02.888Z,5.71
2023-02-06T09:01:09.184Z,5.75
2023-02-06T09:04:12.872Z,5.79
2023-02-06T09:07:17.169Z,5.82
2023-02-06T09:10:27.551Z,5.85
2023-02-06T09:13:31.218Z,5.87
2023-02-06T09:16:33.783Z,5.91
2023-02-06T09:19:35.444Z,5.95
2023-02-06T09:22:37.140Z,5.99
2023-02-06T09:25:39.375Z,6.03
2023-02-06T09:28:41.239Z,6.08
2023-02-06T09:31:43.522Z,6.12
2023-02-06T09:34:45.378Z,6.15
2023-02-06T09:37:48.094Z,6.19
2023-02-06T09:40:50.034Z,6.21
2023-02-06T09:43:59.823Z,6.22
2023-02-06T09:47:12.697Z,6.21
2023-02-06T09:50:19.731Z,6.22
2023-02-06T09:53:30.363Z,6.22
2023-02-06T09:56:39.992Z,6.17
2023-02-06T09:59:52.538Z,6.07
2023-02-06T10:03:32.061Z,6.01
2023-02-06T10:06:43.757Z,5.95
2023-02-06T10:09:52.061Z,5.92
2023-02-06T10:13:07.857Z,5.94
2023-02-06T10:16:44.576Z,5.96
2023-02-06T10:19:58.315Z,5.91
2023-02-06T10:23:06.104Z,5.89
2023-02-06T10:26:12.585Z,5.91
2023-02-06T10:29:27.700Z,5.94
2023-02-06T10:32:51.992Z,5.95
2023-02-06T10:36:04.418Z,5.92
2023-02-06T10:39:18.384Z,5.94
2023-02-06T10:42:44.243Z,5.95
2023-02-06T10:45:52.242Z,5.93
2023-02-06T10:49:11.920Z,5.94
2023-02-06T10:52:23.931Z,5.92
2023-02-06T10:55:38.583Z,5.88
2023-02-06T10:58:45.667Z,5.87
2023-02-06T11:01:48.293Z,5.88
2023-02-06T11:04:54.348Z,5.86
2023-02-06T11:08:21.692Z,5.87
2023-02-06T11:11:30.099Z,5.90
2023-02-06T11:14:37.790Z,5.86
2023-02-06T11:17:39.487Z,5.84
2023-02-06T11:20:43.063Z,5.85
2023-02-06T11:23:44.711Z,5.87
2023-02-06T11:26:57.169Z,5.89
2023-02-06T11:30:08.517Z,5.93
2023-02-06T11:33:22.893Z,5.96
2023-02-06T11:36:24.520Z,6.00
2023-02-06T11:39:36.641Z,6.01
2023-02-06T11:42:38.232Z,5.97
2023-02-06T11:45:41.218Z,5.96
2023-02-06T11:49:01.291Z,5.91
2023-02-06T11:52:04.162Z,5.92
2023-02-06T11:55:06.332Z,5.98
2023-02-06T11:58:14.050Z,6.03
2023-02-06T12:01:21.838Z,6.10
2023-02-06T12:04:30.893Z,6.18
2023-02-06T12:07:38.677Z,6.24
2023-02-06T12:10:48.501Z,6.26
2023-02-06T12:14:00.844Z,6.31
2023-02-06T12:17:03.626Z,6.29
2023-02-06T12:20:15.628Z,6.26
2023-02-06T12:23:28.257Z,6.27
2023-02-06T12:26:32.381Z,6.26
2023-02-06T12:29:42.041Z,6.25
2023-02-06T12:32:47.097Z,6.26
2023-02-06T12:35:53.912Z,6.32
2023-02-06T12:39:03.370Z,6.35
2023-02-06T12:42:41.791Z,6.42
2023-02-06T12:45:49.775Z,6.47
2023-02-06T12:48:57.274Z,6.51
2023-02-06T12:52:05.620Z,6.56
2023-02-06T12:55:24.673Z,6.62
2023-02-06T12:58:46.115Z,6.66
2023-02-06T13:02:05.483Z,6.67
2023-02-06T13:05:36.301Z,6.70
2023-02-06T13:08:45.245Z,6.78
2023-02-06T13:11:47.180Z,6.83
2023-02-06T13:15:05.892Z,6.89
2023-02-06T13:18:41.966Z,6.97
2023-02-06T13:21:51.556Z,7.05
2023-02-06T13:24:53.418Z,7.08
2023-02-06T13:28:22.435Z,7.12
2023-02-06T13:31:26.482Z,7.17
2023-02-06T13:34:28.637Z,7.22
2023-02-06T13:37:39.102Z,7.29
2023-02-06T13:40:40.741Z,7.38
2023-02-06T13:43:44.833Z,7.41
2023-02-06T13:47:14.703Z,7.49
2023-02-06T13:50:23.053Z,7.57
2023-02-06T13:53:25.098Z,7.60
2023-02-06T13:56:45.585Z,7.66
2023-02-06T13:59:51.312Z,7.76
2023-02-06T14:03:04.166Z,7.88
2023-02-06T14:06:37.261Z,7.93
2023-02-06T14:09:51.586Z,7.93
2023-02-06T14:12:56.320Z,7.82
2023-02-06T14:16:22.722Z,7.82
2023-02-06T14:19:33.990Z,7.87
2023-02-06T14:22:48.381Z,7.92
2023-02-06T14:26:05.463Z,7.92
2023-02-06T14:29:18.371Z,7.88
2023-02-06T14:32:26.177Z,7.89
2023-02-06T14:35:41.216Z,7.88
2023-02-06T14:38:53.429Z,7.89
2023-02-06T14:41:55.273Z,7.93
2023-02-06T14:45:03.969Z,7.94
2023-02-06T14:48:13.502Z,7.90
2023-02-06T14:51:21.359Z,7.89
2023-02-06T14:54:41.847Z,7.87
2023-02-06T14:57:45.540Z,7.84
2023-02-06T15:00:47.628Z,7.78
2023-02-06T15:03:52.567Z,7.71
2023-02-06T15:07:03.243Z,7.62
2023-02-06T15:10:11.686Z,7.54
2023-02-06T15:13:24.248Z,7.45
2023-02-06T15:16:26.094Z,7.37
2023-02-06T15:19:33.301Z,7.29
2023-02-06T15:22:35.565Z,7.19
2023-02-06T15:25:42.466Z,7.11
2023-02-06T15:28:44.359Z,7.02
2023-02-06T15:31:55.233Z,6.91
2023-02-06T15:34:56.964Z,6.79
2023-02-06T15:38:22.648Z,6.68
2023-02-06T15:41:24.493Z,6.58
2023-02-06T15:44:34.221Z,6.50
2023-02-06T15:47:37.192Z,6.43
2023-02-06T15:50:39.208Z,6.35
2023-02-06T15:53:43.596Z,6.29
2023-02-06T15:56:54.886Z,6.23
2023-02-06T15:59:59.491Z,6.18
2023-02-06T16:03:07.913Z,6.09
2023-02-06T16:06:16.781Z,6.01
2023-02-06T16:09:21.656Z,5.95
2023-02-06T16:12:23.807Z,5.90
2023-02-06T16:15:35.093Z,5.85
2023-02-06T16:18:41.125Z,5.79
2023-02-06T16:21:43.744Z,5.74
2023-02-06T16:24:46.349Z,5.68
2023-02-06T16:27:48.906Z,5.63
2023-02-06T16:30:56.101Z,5.58
2023-02-06T16:34:05.087Z,5.53
2023-02-06T16:37:12.979Z,5.48
2023-02-06T16:40:14.656Z,5.43
2023-02-06T16:43:16.506Z,5.39
2023-02-06T16:46:18.362Z,5.36
2023-02-06T16:49:21.895Z,5.32
2023-02-06T16:52:29.240Z,5.29
2023-02-06T16:55:30.901Z,5.26
2023-02-06T16:58:35.031Z,5.22
2023-02-06T17:01:36.905Z,5.18
2023-02-06T17:04:38.851Z,5.13
2023-02-06T17:07:41.103Z,5.08
2023-02-06T17:10:42.906Z,5.03
2023-02-06T17:13:44.773Z,4.98
2023-02-06T17:16:46.481Z,4.92
2023-02-06T17:19:48.814Z,4.85
2023-02-06T17:22:51.903Z,4.79
2023-02-06T17:25:53.750Z,4.70
2023-02-06T17:28:55.438Z,4.65
2023-02-06T17:31:58.066Z,4.59
2023-02-06T17:35:01.712Z,4.52
2023-02-06T17:38:05.102Z,4.46
2023-02-06T17:41:06.764Z,4.41
2023-02-06T17:44:08.477Z,4.34
2023-02-06T17:47:10.246Z,4.26
2023-02-06T17:50:17.400Z,4.18
2023-02-06T17:53:19.148Z,4.09
2023-02-06T17:56:21.120Z,4.00
2023-02-06T17:59:22.819Z,3.94
2023-02-06T18:02:24.515Z,3.88
2023-02-06T18:05:26.898Z,3.82
2023-02-06T18:08:29.615Z,3.75
2023-02-06T18:11:31.633Z,3.67
2023-02-06T18:14:35.423Z,3.60
2023-02-06T18:17:37.063Z,3.53
2023-02-06T18:20:39.406Z,3.46
2023-02-06T18:23:41.734Z,3.39
2023-02-06T18:26:43.424Z,3.32
2023-02-06T18:29:50.079Z,3.27
2023-02-06T18:32:52.272Z,3.21
2023-02-06T18:35:53.931Z,3.15
2023-02-06T18:38:56.817Z,3.12
2023-02-06T18:42:16.992Z,3.08
2023-02-06T18:45:20.317Z,3.04
2023-02-06T18:48:22.069Z,3.01
2023-02-06T18:51:23.954Z,2.99
2023-02-06T18:54:25.661Z,2.97
2023-02-06T18:57:27.434Z,2.96
2023-02-06T19:00:29.185Z,2.94
2023-02-06T19:03:30.846Z,2.91
2023-02-06T19:06:36.520Z,2.85
2023-02-06T19:09:38.712Z,2.80
2023-02-06T19:12:40.446Z,2.77
2023-02-06T19:15:42.135Z,2.74
2023-02-06T19:18:45.854Z,2.73
2023-02-06T19:21:47.590Z,2.72
2023-02-06T19:24:51.224Z,2.71
2023-02-06T19:27:52.932Z,2.71
2023-02-06T19:30:54.685Z,2.72
2023-02-06T19:33:59.017Z,2.73
2023-02-06T19:37:00.635Z,2.75
2023-02-06T19:40:02.437Z,2.76
2023-02-06T19:43:04.269Z,2.78
2023-02-06T19:46:08.723Z,2.81
2023-02-06T19:49:11.112Z,2.85
2023-02-06T19:52:14.503Z,2.87
2023-02-06T19:55:16.181Z,2.90
2023-02-06T19:58:17.877Z,2.92
2023-02-06T20:01:19.631Z,2.94
2023-02-06T20:04:23.759Z,2.96
2023-02-06T20:07:25.435Z,2.97
2023-02-06T20:10:27.262Z,2.99
2023-02-06T20:13:29.121Z,3.02
2023-02-06T20:16:33.986Z,3.04
2023-02-06T20:19:35.873Z,3.05
2023-02-06T20:22:38.598Z,3.05
2023-02-06T20:25:40.338Z,3.06
2023-02-06T20:28:42.041Z,3.08
2023-02-06T20:31:43.876Z,3.07
2023-02-06T20:34:46.542Z,3.08
2023-02-06T20:37:48.208Z,3.08
2023-02-06T20:40:51.146Z,3.08
2023-02-06T20:43:53.030Z,3.08
2023-02-06T20:46:55.248Z,3.10
2023-02-06T20:50:00.972Z,3.11
2023-02-06T20:53:02.801Z,3.11
2023-02-06T20:56:05.114Z,3.11
2023-02-06T20:59:07.759Z,3.12
2023-02-06T21:02:11.025Z,3.13
2023-02-06T21:05:12.730Z,3.14
2023-02-06T21:08:14.548Z,3.14
2023-02-06T21:11:17.968Z,3.14
2023-02-06T21:14:20.161Z,3.14
2023-02-06T21:17:22.520Z,3.13
2023-02-06T21:20:24.834Z,3.12
2023-02-06T21:23:26.564Z,3.11
2023-02-06T21:26:29.023Z,3.11
2023-02-06T21:29:30.699Z,3.08
2023-02-06T21:32:32.922Z,3.08
2023-02-06T21:35:34.662Z,3.07
2023-02-06T21:38:36.394Z,3.06
2023-02-06T21:41:38.399Z,3.04
2023-02-06T21:44:41.221Z,3.03
2023-02-06T21:47:42.941Z,3.01
2023-02-06T21:50:44.994Z,3.00
2023-02-06T21:53:46.714Z,2.98
2023-02-06T21:56:49.111Z,2.97
2023-02-06T21:59:50.744Z,2.95
2023-02-06T22:02:52.447Z,2.93
2023-02-06T22:05:54.171Z,2.90
2023-02-06T22:08:57.225Z,2.88
2023-02-06T22:11:59.053Z,2.88
2023-02-06T22:15:00.766Z,2.86
2023-02-06T22:18:02.440Z,2.83
2023-02-06T22:21:06.109Z,2.80
2023-02-06T22:24:08.664Z,2.79
2023-02-06T22:27:11.626Z,2.76
2023-02-06T22:30:13.721Z,2.71
2023-02-06T22:33:15.336Z,2.64
2023-02-06T22:36:24.013Z,2.59
2023-02-06T22:39:26.133Z,2.56
2023-02-06T22:42:27.729Z,2.54
2023-02-06T22:45:29.677Z,2.54
2023-02-06T22:48:31.490Z,2.53
2023-02-06T22:51:33.622Z,2.50
2023-02-06T22:54:35.300Z,2.48
2023-02-06T22:57:37.319Z,2.46
2023-02-06T23:00:38.882Z,2.43
2023-02-06T23:03:40.606Z,2.41
2023-02-06T23:06:43.267Z,2.38
2023-02-06T23:09:44.862Z,2.35
2023-02-06T23:12:46.558Z,2.33
2023-02-06T23:15:48.266Z,2.29
2023-02-06T23:18:49.906Z,2.27
2023-02-06T23:21:52.094Z,2.23
2023-02-06T23:24:53.723Z,2.20
2023-02-06T23:27:55.356Z,2.17
2023-02-06T23:30:57.073Z,2.14
2023-02-06T23:33:58.772Z,2.11
2023-02-06T23:37:01.390Z,2.09
2023-02-06T23:40:05.289Z,2.06
2023-02-06T23:43:07.732Z,2.03
2023-02-06T23:46:12.236Z,2.02
2023-02-06T23:49:14.111Z,1.98
2023-02-06T23:52:15.810Z,1.96
2023-02-06T23:55:18.392Z,1.92
2023-02-06T23:58:20.094Z,1.88
